sensor_id;sensor_type;location;lat;lon;timestamp;pressure;altitude;pressure_sealevel;temperature;humidity
79037;BME280;68434;59.896;30.474;2023-06-01T00:00:23;100645.69;;;13.52;63.85
79037;BME280;68434;59.896;30.474;2023-06-01T00:02:51;100639.25;;;13.45;63.57
79037;BME280;68434;59.896;30.474;2023-06-01T00:05:19;100641.16;;;13.45;64.50
79037;BME280;68434;59.896;30.474;2023-06-01T00:07:46;100643.00;;;13.44;64.25
79037;BME280;68434;59.896;30.474;2023-06-01T00:10:15;100648.09;;;13.47;64.10
79037;BME280;68434;59.896;30.474;2023-06-01T00:12:42;100643.84;;;13.45;64.15
79037;BME280;68434;59.896;30.474;2023-06-01T00:15:10;100648.09;;;13.47;63.91
79037;BME280;68434;59.896;30.474;2023-06-01T00:17:38;100644.34;;;13.48;63.82
79037;BME280;68434;59.896;30.474;2023-06-01T00:20:07;100641.16;;;13.45;63.58
79037;BME280;68434;59.896;30.474;2023-06-01T00:22:35;100642.16;;;13.44;64.03
79037;BME280;68434;59.896;30.474;2023-06-01T00:25:06;100634.84;;;13.44;63.36
79037;BME280;68434;59.896;30.474;2023-06-01T00:27:34;100634.81;;;13.52;63.39
79037;BME280;68434;59.896;30.474;2023-06-01T00:30:02;100633.97;;;13.52;63.88
79037;BME280;68434;59.896;30.474;2023-06-01T00:32:34;100628.88;;;13.49;64.46
79037;BME280;68434;59.896;30.474;2023-06-01T00:35:01;100625.81;;;13.52;64.58
79037;BME280;68434;59.896;30.474;2023-06-01T00:37:29;100625.47;;;13.55;64.12
79037;BME280;68434;59.896;30.474;2023-06-01T00:39:57;100628.84;;;13.57;64.64
79037;BME280;68434;59.896;30.474;2023-06-01T00:42:25;100627.47;;;13.61;63.93
79037;BME280;68434;59.896;30.474;2023-06-01T00:44:54;100627.13;;;13.64;63.93
79037;BME280;68434;59.896;30.474;2023-06-01T00:47:25;100616.44;;;13.54;64.67
79037;BME280;68434;59.896;30.474;2023-06-01T00:49:53;100615.91;;;13.59;64.65
79037;BME280;68434;59.896;30.474;2023-06-01T00:52:21;100618.63;;;13.59;64.79
79037;BME280;68434;59.896;30.474;2023-06-01T00:54:49;100622.91;;;13.53;64.88
79037;BME280;68434;59.896;30.474;2023-06-01T00:57:17;100618.03;;;13.41;66.24
79037;BME280;68434;59.896;30.474;2023-06-01T00:59:47;100612.78;;;13.39;66.02
79037;BME280;68434;59.896;30.474;2023-06-01T01:02:16;100604.09;;;13.44;65.48
79037;BME280;68434;59.896;30.474;2023-06-01T01:04:44;100604.44;;;13.49;65.30
79037;BME280;68434;59.896;30.474;2023-06-01T01:07:25;100604.75;;;13.54;65.14
79037;BME280;68434;59.896;30.474;2023-06-01T01:10:04;100603.09;;;13.45;65.51
79037;BME280;68434;59.896;30.474;2023-06-01T01:12:43;100597.16;;;13.41;65.68
79037;BME280;68434;59.896;30.474;2023-06-01T01:15:17;100603.81;;;13.39;65.62
79037;BME280;68434;59.896;30.474;2023-06-01T01:17:53;100618.09;;;13.33;66.07
79037;BME280;68434;59.896;30.474;2023-06-01T01:20:25;100602.78;;;13.32;66.05
79037;BME280;68434;59.896;30.474;2023-06-01T01:23:15;100603.31;;;13.27;66.46
79037;BME280;68434;59.896;30.474;2023-06-01T01:26:12;100604.34;;;13.26;66.54
79037;BME280;68434;59.896;30.474;2023-06-01T01:28:47;100607.41;;;13.31;66.71
79037;BME280;68434;59.896;30.474;2023-06-01T01:31:18;100608.75;;;13.27;66.33
79037;BME280;68434;59.896;30.474;2023-06-01T01:33:47;100604.84;;;13.30;65.97
79037;BME280;68434;59.896;30.474;2023-06-01T01:36:16;100608.41;;;13.30;66.11
79037;BME280;68434;59.896;30.474;2023-06-01T01:38:44;100618.25;;;13.31;66.49
79037;BME280;68434;59.896;30.474;2023-06-01T01:41:11;100606.88;;;13.27;66.60
79037;BME280;68434;59.896;30.474;2023-06-01T01:43:39;100612.31;;;13.27;67.13
79037;BME280;68434;59.896;30.474;2023-06-01T01:46:21;100601.63;;;13.26;66.86
79037;BME280;68434;59.896;30.474;2023-06-01T01:48:59;100607.06;;;13.26;67.04
79037;BME280;68434;59.896;30.474;2023-06-01T01:51:35;100605.69;;;13.30;66.91
79037;BME280;68434;59.896;30.474;2023-06-01T01:54:05;100600.06;;;13.32;66.16
79037;BME280;68434;59.896;30.474;2023-06-01T01:56:35;100612.78;;;13.39;66.58
79037;BME280;68434;59.896;30.474;2023-06-01T01:59:03;100610.75;;;13.33;67.28
79037;BME280;68434;59.896;30.474;2023-06-01T02:01:33;100606.00;;;13.35;66.93
79037;BME280;68434;59.896;30.474;2023-06-01T02:04:02;100602.63;;;13.33;66.59
79037;BME280;68434;59.896;30.474;2023-06-01T02:06:30;100604.63;;;13.39;66.72
79037;BME280;68434;59.896;30.474;2023-06-01T02:08:59;100603.28;;;13.43;66.29
79037;BME280;68434;59.896;30.474;2023-06-01T02:11:27;100609.84;;;13.49;66.45
79037;BME280;68434;59.896;30.474;2023-06-01T02:13:54;100602.75;;;13.48;66.17
79037;BME280;68434;59.896;30.474;2023-06-01T02:16:22;100604.44;;;13.49;66.35
79037;BME280;68434;59.896;30.474;2023-06-01T02:18:51;100606.28;;;13.48;66.57
79037;BME280;68434;59.896;30.474;2023-06-01T02:21:21;100611.38;;;13.51;66.39
79037;BME280;68434;59.896;30.474;2023-06-01T02:23:48;100607.47;;;13.54;66.23
79037;BME280;68434;59.896;30.474;2023-06-01T02:26:16;100608.13;;;13.56;65.71
79037;BME280;68434;59.896;30.474;2023-06-01T02:28:44;100609.84;;;13.57;66.27
79037;BME280;68434;59.896;30.474;2023-06-01T02:31:13;100592.84;;;13.55;66.11
79037;BME280;68434;59.896;30.474;2023-06-01T02:33:41;100607.28;;;13.55;66.37
79037;BME280;68434;59.896;30.474;2023-06-01T02:36:10;100609.66;;;13.58;66.24
79037;BME280;68434;59.896;30.474;2023-06-01T02:38:38;100595.53;;;13.63;66.07
79037;BME280;68434;59.896;30.474;2023-06-01T02:41:05;100596.72;;;13.60;66.61
79037;BME280;68434;59.896;30.474;2023-06-01T02:43:34;100600.28;;;13.61;66.36
79037;BME280;68434;59.896;30.474;2023-06-01T02:46:01;100604.50;;;13.63;66.41
79037;BME280;68434;59.896;30.474;2023-06-01T02:48:30;100605.38;;;13.64;66.61
79037;BME280;68434;59.896;30.474;2023-06-01T02:50:58;100599.06;;;13.63;66.67
79037;BME280;68434;59.896;30.474;2023-06-01T02:53:27;100597.22;;;13.64;66.73
79037;BME280;68434;59.896;30.474;2023-06-01T02:55:55;100598.91;;;13.65;67.14
79037;BME280;68434;59.896;30.474;2023-06-01T02:58:41;100595.81;;;13.68;66.62
79037;BME280;68434;59.896;30.474;2023-06-01T03:01:31;100598.53;;;13.68;66.83
79037;BME280;68434;59.896;30.474;2023-06-01T03:04:02;100590.63;;;13.58;66.91
79037;BME280;68434;59.896;30.474;2023-06-01T03:06:32;100600.81;;;13.56;67.30
79037;BME280;68434;59.896;30.474;2023-06-01T03:09:23;100587.09;;;13.50;68.16
79037;BME280;68434;59.896;30.474;2023-06-01T03:12:00;100595.19;;;13.58;67.59
79037;BME280;68434;59.896;30.474;2023-06-01T03:14:29;100595.53;;;13.63;67.80
79037;BME280;68434;59.896;30.474;2023-06-01T03:16:57;100601.44;;;13.66;67.21
79037;BME280;68434;59.896;30.474;2023-06-01T03:19:25;100591.91;;;13.70;67.38
79037;BME280;68434;59.896;30.474;2023-06-01T03:21:55;100600.38;;;13.75;67.01
79037;BME280;68434;59.896;30.474;2023-06-01T03:24:24;100595.44;;;13.79;67.02
79037;BME280;68434;59.896;30.474;2023-06-01T03:26:55;100596.03;;;13.89;66.67
79037;BME280;68434;59.896;30.474;2023-06-01T03:29:24;100601.19;;;13.84;66.76
79037;BME280;68434;59.896;30.474;2023-06-01T03:31:52;100602.19;;;13.83;67.13
79037;BME280;68434;59.896;30.474;2023-06-01T03:34:22;100598.28;;;13.85;67.19
79037;BME280;68434;59.896;30.474;2023-06-01T03:36:52;100598.47;;;13.84;67.11
79037;BME280;68434;59.896;30.474;2023-06-01T03:39:20;100592.84;;;13.85;66.88
79037;BME280;68434;59.896;30.474;2023-06-01T03:41:49;100598.47;;;13.84;66.72
79037;BME280;68434;59.896;30.474;2023-06-01T03:44:17;100590.94;;;13.86;66.97
79037;BME280;68434;59.896;30.474;2023-06-01T03:46:45;100591.13;;;13.84;66.70
79037;BME280;68434;59.896;30.474;2023-06-01T03:49:13;100587.50;;;13.92;66.72
79037;BME280;68434;59.896;30.474;2023-06-01T03:51:41;100583.88;;;13.99;66.28
79037;BME280;68434;59.896;30.474;2023-06-01T03:54:10;100584.88;;;14.06;66.31
79037;BME280;68434;59.896;30.474;2023-06-01T03:56:37;100585.69;;;14.07;66.43
79037;BME280;68434;59.896;30.474;2023-06-01T03:59:06;100577.06;;;14.03;66.38
79037;BME280;68434;59.896;30.474;2023-06-01T04:01:37;100567.84;;;14.12;66.70
79037;BME280;68434;59.896;30.474;2023-06-01T04:04:06;100576.75;;;14.21;66.00
79037;BME280;68434;59.896;30.474;2023-06-01T04:06:35;100573.34;;;14.27;66.19
79037;BME280;68434;59.896;30.474;2023-06-01T04:09:03;100568.66;;;14.35;65.41
79037;BME280;68434;59.896;30.474;2023-06-01T04:11:33;100564.44;;;14.33;65.79
79037;BME280;68434;59.896;30.474;2023-06-01T04:14:01;100564.38;;;14.41;65.72
79037;BME280;68434;59.896;30.474;2023-06-01T04:16:30;100562.97;;;14.45;65.52
79037;BME280;68434;59.896;30.474;2023-06-01T04:18:58;100566.06;;;14.42;65.13
79037;BME280;68434;59.896;30.474;2023-06-01T04:21:29;100561.47;;;14.42;65.08
79037;BME280;68434;59.896;30.474;2023-06-01T04:23:58;100553.69;;;14.39;65.12
79037;BME280;68434;59.896;30.474;2023-06-01T04:26:28;100560.81;;;14.40;64.96
79037;BME280;68434;59.896;30.474;2023-06-01T04:28:58;100558.81;;;14.34;64.35
79037;BME280;68434;59.896;30.474;2023-06-01T04:31:27;100557.50;;;14.30;64.09
79037;BME280;68434;59.896;30.474;2023-06-01T04:33:56;100550.41;;;14.44;64.53
79037;BME280;68434;59.896;30.474;2023-06-01T04:36:28;100555.38;;;14.55;64.30
79037;BME280;68434;59.896;30.474;2023-06-01T04:38:58;100558.41;;;14.60;64.14
79037;BME280;68434;59.896;30.474;2023-06-01T04:41:29;100560.56;;;14.64;63.23
79037;BME280;68434;59.896;30.474;2023-06-01T04:43:58;100556.59;;;14.52;63.11
79037;BME280;68434;59.896;30.474;2023-06-01T04:46:26;100555.88;;;14.58;62.79
79037;BME280;68434;59.896;30.474;2023-06-01T04:48:59;100561.81;;;14.62;63.03
79037;BME280;68434;59.896;30.474;2023-06-01T04:51:27;100558.03;;;14.63;62.88
79037;BME280;68434;59.896;30.474;2023-06-01T04:53:57;100554.75;;;14.67;62.20
79037;BME280;68434;59.896;30.474;2023-06-01T04:56:25;100558.16;;;14.69;62.14
79037;BME280;68434;59.896;30.474;2023-06-01T04:58:55;100560.19;;;14.67;62.50
79037;BME280;68434;59.896;30.474;2023-06-01T05:01:25;100557.28;;;14.69;62.24
79037;BME280;68434;59.896;30.474;2023-06-01T05:05:35;100558.78;;;14.71;61.32
79037;BME280;68434;59.896;30.474;2023-06-01T05:08:06;100550.53;;;14.79;60.60
79037;BME280;68434;59.896;30.474;2023-06-01T05:10:34;100553.44;;;14.92;60.44
79037;BME280;68434;59.896;30.474;2023-06-01T05:13:02;100555.81;;;14.95;59.54
79037;BME280;68434;59.896;30.474;2023-06-01T05:15:30;100545.19;;;15.00;59.13
79037;BME280;68434;59.896;30.474;2023-06-01T05:17:57;100547.81;;;14.94;58.69
79037;BME280;68434;59.896;30.474;2023-06-01T05:21:03;100546.97;;;14.79;56.85
79037;BME280;68434;59.896;30.474;2023-06-01T05:23:31;100546.41;;;14.83;56.71
79037;BME280;68434;59.896;30.474;2023-06-01T05:25:59;100532.41;;;14.86;57.34
79037;BME280;68434;59.896;30.474;2023-06-01T05:28:46;100540.97;;;14.98;58.01
79037;BME280;68434;59.896;30.474;2023-06-01T05:34:17;100539.72;;;15.30;55.92
79037;BME280;68434;59.896;30.474;2023-06-01T05:36:46;100537.00;;;15.44;55.10
79037;BME280;68434;59.896;30.474;2023-06-01T05:39:15;100543.75;;;15.48;54.50
79037;BME280;68434;59.896;30.474;2023-06-01T05:41:42;100548.25;;;15.56;54.50
79037;BME280;68434;59.896;30.474;2023-06-01T05:44:10;100538.75;;;15.52;52.95
79037;BME280;68434;59.896;30.474;2023-06-01T05:46:39;100531.72;;;15.43;53.07
79037;BME280;68434;59.896;30.474;2023-06-01T05:49:06;100543.09;;;15.32;52.70
79037;BME280;68434;59.896;30.474;2023-06-01T05:54:21;100547.34;;;15.05;50.40
79037;BME280;68434;59.896;30.474;2023-06-01T05:56:50;100549.50;;;15.09;51.36
79037;BME280;68434;59.896;30.474;2023-06-01T05:59:18;100538.81;;;15.08;50.80
79037;BME280;68434;59.896;30.474;2023-06-01T06:01:46;100543.88;;;15.11;51.09
79037;BME280;68434;59.896;30.474;2023-06-01T06:04:14;100537.19;;;15.13;52.01
79037;BME280;68434;59.896;30.474;2023-06-01T06:06:42;100537.84;;;15.16;51.37
79037;BME280;68434;59.896;30.474;2023-06-01T06:09:09;100532.69;;;15.06;50.92
79037;BME280;68434;59.896;30.474;2023-06-01T06:11:41;100539.28;;;15.12;51.62
79037;BME280;68434;59.896;30.474;2023-06-01T06:14:09;100537.84;;;15.16;51.96
79037;BME280;68434;59.896;30.474;2023-06-01T06:16:40;100546.22;;;15.14;52.13
79037;BME280;68434;59.896;30.474;2023-06-01T06:19:08;100535.13;;;15.16;51.92
79037;BME280;68434;59.896;30.474;2023-06-01T06:21:37;100539.81;;;15.22;51.66
79037;BME280;68434;59.896;30.474;2023-06-01T06:24:05;100539.63;;;15.23;51.35
79037;BME280;68434;59.896;30.474;2023-06-01T06:26:32;100540.88;;;15.21;50.82
79037;BME280;68434;59.896;30.474;2023-06-01T06:29:01;100538.50;;;15.32;50.65
79037;BME280;68434;59.896;30.474;2023-06-01T06:31:29;100538.88;;;15.44;51.51
79037;BME280;68434;59.896;30.474;2023-06-01T06:33:57;100537.16;;;15.57;51.00
79037;BME280;68434;59.896;30.474;2023-06-01T06:36:24;100533.66;;;15.63;50.70
79037;BME280;68434;59.896;30.474;2023-06-01T06:38:52;100541.44;;;15.66;51.47
79037;BME280;68434;59.896;30.474;2023-06-01T06:41:19;100545.22;;;15.65;51.05
79037;BME280;68434;59.896;30.474;2023-06-01T06:43:47;100548.28;;;15.77;50.24
79037;BME280;68434;59.896;30.474;2023-06-01T06:46:34;100545.94;;;15.74;49.13
79037;BME280;68434;59.896;30.474;2023-06-01T06:49:01;100556.13;;;15.65;47.60
79037;BME280;68434;59.896;30.474;2023-06-01T06:51:29;100541.09;;;15.55;48.15
79037;BME280;68434;59.896;30.474;2023-06-01T06:53:56;100547.91;;;15.44;49.20
79037;BME280;68434;59.896;30.474;2023-06-01T06:56:47;100555.41;;;15.42;50.33
79037;BME280;68434;59.896;30.474;2023-06-01T06:59:17;100563.50;;;15.36;51.38
79037;BME280;68434;59.896;30.474;2023-06-01T07:01:46;100558.91;;;15.22;53.60
79037;BME280;68434;59.896;30.474;2023-06-01T07:04:14;100563.63;;;15.13;54.36
79037;BME280;68434;59.896;30.474;2023-06-01T07:06:41;100558.16;;;15.13;54.59
79037;BME280;68434;59.896;30.474;2023-06-01T07:09:09;100567.72;;;15.09;55.49
79037;BME280;68434;59.896;30.474;2023-06-01T07:11:37;100562.84;;;15.04;56.19
79037;BME280;68434;59.896;30.474;2023-06-01T07:14:04;100567.25;;;14.91;56.16
79037;BME280;68434;59.896;30.474;2023-06-01T07:16:32;100566.81;;;14.87;56.74
79037;BME280;68434;59.896;30.474;2023-06-01T07:22:06;100569.78;;;14.63;56.75
79037;BME280;68434;59.896;30.474;2023-06-01T07:24:34;100566.28;;;14.55;58.08
79037;BME280;68434;59.896;30.474;2023-06-01T07:27:02;100572.19;;;14.44;59.85
79037;BME280;68434;59.896;30.474;2023-06-01T07:29:29;100568.59;;;14.21;61.91
79037;BME280;68434;59.896;30.474;2023-06-01T07:31:58;100564.03;;;13.99;63.25
79037;BME280;68434;59.896;30.474;2023-06-01T07:34:27;100572.44;;;13.81;64.12
79037;BME280;68434;59.896;30.474;2023-06-01T07:36:55;100556.09;;;13.59;65.50
79037;BME280;68434;59.896;30.474;2023-06-01T07:39:24;100567.16;;;13.57;64.94
79037;BME280;68434;59.896;30.474;2023-06-01T07:41:52;100569.66;;;13.67;63.73
79037;BME280;68434;59.896;30.474;2023-06-01T07:44:28;100563.69;;;13.71;64.80
79037;BME280;68434;59.896;30.474;2023-06-01T07:46:55;100562.00;;;13.70;66.26
79037;BME280;68434;59.896;30.474;2023-06-01T07:49:23;100569.38;;;13.84;65.41
79037;BME280;68434;59.896;30.474;2023-06-01T07:51:52;100564.78;;;13.85;64.23
79037;BME280;68434;59.896;30.474;2023-06-01T07:54:20;100561.94;;;14.01;63.73
79037;BME280;68434;59.896;30.474;2023-06-01T07:56:47;100562.03;;;14.15;65.18
79037;BME280;68434;59.896;30.474;2023-06-01T07:59:15;100563.78;;;14.31;62.92
79037;BME280;68434;59.896;30.474;2023-06-01T08:01:43;100565.88;;;14.43;63.86
79037;BME280;68434;59.896;30.474;2023-06-01T08:04:11;100561.38;;;14.50;63.89
79037;BME280;68434;59.896;30.474;2023-06-01T08:06:38;100570.53;;;14.57;62.26
79037;BME280;68434;59.896;30.474;2023-06-01T08:09:09;100562.44;;;14.49;60.04
79037;BME280;68434;59.896;30.474;2023-06-01T08:11:37;100562.06;;;14.52;59.80
79037;BME280;68434;59.896;30.474;2023-06-01T08:14:05;100563.47;;;14.48;58.72
79037;BME280;68434;59.896;30.474;2023-06-01T08:16:35;100564.34;;;14.63;58.90
79037;BME280;68434;59.896;30.474;2023-06-01T08:19:03;100569.41;;;14.66;58.39
79037;BME280;68434;59.896;30.474;2023-06-01T08:21:31;100572.41;;;14.71;58.43
79037;BME280;68434;59.896;30.474;2023-06-01T08:24:00;100570.41;;;14.65;57.85
79037;BME280;68434;59.896;30.474;2023-06-01T08:26:30;100580.69;;;14.63;58.73
79037;BME280;68434;59.896;30.474;2023-06-01T08:28:57;100579.88;;;14.55;57.17
79037;BME280;68434;59.896;30.474;2023-06-01T08:31:25;100593.78;;;14.45;56.57
79037;BME280;68434;59.896;30.474;2023-06-01T08:33:53;100588.94;;;14.33;56.26
79037;BME280;68434;59.896;30.474;2023-06-01T08:36:21;100592.22;;;14.28;56.56
79037;BME280;68434;59.896;30.474;2023-06-01T08:38:49;100595.81;;;14.21;55.54
79037;BME280;68434;59.896;30.474;2023-06-01T08:41:21;100607.78;;;14.12;55.22
79037;BME280;68434;59.896;30.474;2023-06-01T08:43:54;100602.69;;;14.09;54.66
79037;BME280;68434;59.896;30.474;2023-06-01T08:46:23;100598.66;;;14.05;53.54
79037;BME280;68434;59.896;30.474;2023-06-01T08:48:54;100591.59;;;13.96;53.37
79037;BME280;68434;59.896;30.474;2023-06-01T08:51:25;100600.16;;;14.07;53.66
79037;BME280;68434;59.896;30.474;2023-06-01T08:53:53;100604.84;;;14.21;52.78
79037;BME280;68434;59.896;30.474;2023-06-01T08:56:23;100601.94;;;14.45;54.56
79037;BME280;68434;59.896;30.474;2023-06-01T08:58:51;100599.56;;;14.65;53.27
79037;BME280;68434;59.896;30.474;2023-06-01T09:01:20;100613.53;;;14.62;51.05
79037;BME280;68434;59.896;30.474;2023-06-01T09:03:49;100616.91;;;14.64;50.92
79037;BME280;68434;59.896;30.474;2023-06-01T09:06:17;100607.78;;;14.57;52.44
79037;BME280;68434;59.896;30.474;2023-06-01T09:09:03;100625.97;;;14.56;51.50
79037;BME280;68434;59.896;30.474;2023-06-01T09:14:22;100622.38;;;14.41;48.32
79037;BME280;68434;59.896;30.474;2023-06-01T09:17:13;100641.16;;;14.36;49.37
79037;BME280;68434;59.896;30.474;2023-06-01T09:19:42;100629.72;;;14.41;47.96
79037;BME280;68434;59.896;30.474;2023-06-01T09:22:11;100631.34;;;14.50;47.58
79037;BME280;68434;59.896;30.474;2023-06-01T09:24:39;100628.72;;;14.56;46.92
79037;BME280;68434;59.896;30.474;2023-06-01T09:27:07;100625.19;;;14.70;46.25
79037;BME280;68434;59.896;30.474;2023-06-01T09:29:35;100630.88;;;14.98;47.62
79037;BME280;68434;59.896;30.474;2023-06-01T09:32:04;100622.22;;;14.94;45.13
79037;BME280;68434;59.896;30.474;2023-06-01T09:34:43;100630.31;;;15.02;46.37
79037;BME280;68434;59.896;30.474;2023-06-01T09:37:11;100632.94;;;15.10;46.39
79037;BME280;68434;59.896;30.474;2023-06-01T09:39:40;100631.38;;;15.16;46.02
79037;BME280;68434;59.896;30.474;2023-06-01T09:42:08;100626.75;;;15.17;45.86
79037;BME280;68434;59.896;30.474;2023-06-01T09:44:37;100627.22;;;15.20;46.57
79037;BME280;68434;59.896;30.474;2023-06-01T09:47:06;100644.50;;;15.13;44.51
79037;BME280;68434;59.896;30.474;2023-06-01T09:49:38;100644.75;;;14.88;44.84
79037;BME280;68434;59.896;30.474;2023-06-01T09:52:11;100646.28;;;14.54;43.88
79037;BME280;68434;59.896;30.474;2023-06-01T09:54:41;100644.56;;;14.75;44.38
79037;BME280;68434;59.896;30.474;2023-06-01T09:57:10;100641.09;;;14.81;44.53
79037;BME280;68434;59.896;30.474;2023-06-01T09:59:40;100643.34;;;14.92;44.95
79037;BME280;68434;59.896;30.474;2023-06-01T10:02:12;100651.81;;;14.97;43.73
79037;BME280;68434;59.896;30.474;2023-06-01T10:04:45;100645.75;;;15.10;43.32
79037;BME280;68434;59.896;30.474;2023-06-01T10:07:13;100641.41;;;15.01;42.12
79037;BME280;68434;59.896;30.474;2023-06-01T10:09:42;100650.97;;;14.97;43.51
79037;BME280;68434;59.896;30.474;2023-06-01T10:12:11;100646.84;;;15.01;41.56
79037;BME280;68434;59.896;30.474;2023-06-01T10:14:39;100654.25;;;14.92;39.90
79037;BME280;68434;59.896;30.474;2023-06-01T10:17:07;100653.97;;;14.87;40.65
79037;BME280;68434;59.896;30.474;2023-06-01T10:19:37;100655.78;;;14.95;40.66
79037;BME280;68434;59.896;30.474;2023-06-01T10:22:06;100671.56;;;14.99;43.06
79037;BME280;68434;59.896;30.474;2023-06-01T10:24:35;100656.50;;;14.89;44.04
79037;BME280;68434;59.896;30.474;2023-06-01T10:27:15;100674.34;;;14.77;44.88
79037;BME280;68434;59.896;30.474;2023-06-01T10:29:45;100684.91;;;14.72;45.18
79037;BME280;68434;59.896;30.474;2023-06-01T10:32:41;100697.09;;;14.61;44.97
79037;BME280;68434;59.896;30.474;2023-06-01T10:35:10;100674.09;;;14.64;43.85
79037;BME280;68434;59.896;30.474;2023-06-01T10:38:27;100690.53;;;14.70;44.65
79037;BME280;68434;59.896;30.474;2023-06-01T10:41:25;100698.28;;;14.81;45.30
79037;BME280;68434;59.896;30.474;2023-06-01T10:43:57;100694.66;;;14.89;45.33
79037;BME280;68434;59.896;30.474;2023-06-01T10:46:41;100696.41;;;14.59;41.95
79037;BME280;68434;59.896;30.474;2023-06-01T10:49:09;100693.81;;;14.43;42.96
79037;BME280;68434;59.896;30.474;2023-06-01T10:51:36;100706.28;;;14.60;43.56
79037;BME280;68434;59.896;30.474;2023-06-01T10:54:28;100709.28;;;14.65;42.18
79037;BME280;68434;59.896;30.474;2023-06-01T10:57:21;100705.25;;;14.61;43.85
79037;BME280;68434;59.896;30.474;2023-06-01T11:00:13;100721.03;;;14.66;44.44
79037;BME280;68434;59.896;30.474;2023-06-01T11:02:59;100729.91;;;14.68;44.73
79037;BME280;68434;59.896;30.474;2023-06-01T11:05:38;100715.41;;;14.67;44.68
79037;BME280;68434;59.896;30.474;2023-06-01T11:08:07;100708.09;;;14.45;44.67
79037;BME280;68434;59.896;30.474;2023-06-01T11:11:00;100734.69;;;14.35;44.28
79037;BME280;68434;59.896;30.474;2023-06-01T11:13:31;100722.97;;;14.35;45.37
79037;BME280;68434;59.896;30.474;2023-06-01T11:16:27;100735.00;;;14.40;46.59
79037;BME280;68434;59.896;30.474;2023-06-01T11:18:57;100737.69;;;14.48;46.88
79037;BME280;68434;59.896;30.474;2023-06-01T11:21:27;100747.19;;;14.52;47.38
79037;BME280;68434;59.896;30.474;2023-06-01T11:23:56;100737.69;;;14.48;45.42
79037;BME280;68434;59.896;30.474;2023-06-01T11:26:30;100752.75;;;14.59;45.18
79037;BME280;68434;59.896;30.474;2023-06-01T11:29:07;100747.25;;;14.67;45.26
79037;BME280;68434;59.896;30.474;2023-06-01T11:31:37;100746.88;;;14.47;44.75
79037;BME280;68434;59.896;30.474;2023-06-01T11:34:07;100759.19;;;14.35;46.14
79037;BME280;68434;59.896;30.474;2023-06-01T11:36:42;100746.69;;;14.18;44.79
79037;BME280;68434;59.896;30.474;2023-06-01T11:39:21;100746.50;;;14.20;44.41
79037;BME280;68434;59.896;30.474;2023-06-01T11:41:52;100770.63;;;14.23;45.29
79037;BME280;68434;59.896;30.474;2023-06-01T11:44:20;100762.34;;;14.16;44.72
79037;BME280;68434;59.896;30.474;2023-06-01T11:46:55;100766.91;;;14.16;45.65
79037;BME280;68434;59.896;30.474;2023-06-01T11:49:23;100774.66;;;13.96;41.86
79037;BME280;68434;59.896;30.474;2023-06-01T11:51:51;100767.59;;;13.79;41.50
79037;BME280;68434;59.896;30.474;2023-06-01T11:54:23;100762.06;;;14.03;42.82
79037;BME280;68434;59.896;30.474;2023-06-01T11:56:54;100763.75;;;14.04;43.12
79037;BME280;68434;59.896;30.474;2023-06-01T11:59:23;100761.56;;;14.00;44.67
79037;BME280;68434;59.896;30.474;2023-06-01T12:01:50;100781.38;;;14.16;43.92
79037;BME280;68434;59.896;30.474;2023-06-01T12:04:23;100770.78;;;14.29;42.14
79037;BME280;68434;59.896;30.474;2023-06-01T12:06:51;100770.84;;;14.13;42.49
79037;BME280;68434;59.896;30.474;2023-06-01T12:09:19;100764.69;;;14.27;43.04
79037;BME280;68434;59.896;30.474;2023-06-01T12:11:47;100767.69;;;14.40;41.94
79037;BME280;68434;59.896;30.474;2023-06-01T12:14:18;100774.44;;;14.44;42.21
79037;BME280;68434;59.896;30.474;2023-06-01T12:16:57;100803.47;;;14.60;42.71
79037;BME280;68434;59.896;30.474;2023-06-01T12:19:27;100803.78;;;14.34;40.83
79037;BME280;68434;59.896;30.474;2023-06-01T12:21:56;100794.28;;;14.22;41.35
79037;BME280;68434;59.896;30.474;2023-06-01T12:24:28;100807.19;;;14.20;42.60
79037;BME280;68434;59.896;30.474;2023-06-01T12:26:57;100794.00;;;14.09;43.60
79037;BME280;68434;59.896;30.474;2023-06-01T12:29:37;100798.59;;;14.09;42.83
79037;BME280;68434;59.896;30.474;2023-06-01T12:32:08;100796.03;;;14.07;44.13
79037;BME280;68434;59.896;30.474;2023-06-01T12:34:39;100800.78;;;14.05;42.91
79037;BME280;68434;59.896;30.474;2023-06-01T12:37:14;100799.13;;;13.96;43.07
79037;BME280;68434;59.896;30.474;2023-06-01T12:39:43;100814.03;;;14.08;42.58
79037;BME280;68434;59.896;30.474;2023-06-01T12:42:11;100801.44;;;14.23;40.10
79037;BME280;68434;59.896;30.474;2023-06-01T12:44:40;100791.63;;;14.45;40.62
79037;BME280;68434;59.896;30.474;2023-06-01T12:47:08;100794.69;;;14.50;39.93
79037;BME280;68434;59.896;30.474;2023-06-01T12:49:35;100790.91;;;14.51;39.75
79037;BME280;68434;59.896;30.474;2023-06-01T12:52:05;100811.44;;;14.61;41.35
79037;BME280;68434;59.896;30.474;2023-06-01T12:54:32;100826.84;;;14.46;39.35
79037;BME280;68434;59.896;30.474;2023-06-01T12:57:00;100812.97;;;14.33;39.38
79037;BME280;68434;59.896;30.474;2023-06-01T12:59:28;100822.81;;;14.34;39.18
79037;BME280;68434;59.896;30.474;2023-06-01T13:01:57;100819.78;;;14.29;38.85
79037;BME280;68434;59.896;30.474;2023-06-01T13:04:25;100821.66;;;14.29;38.33
79037;BME280;68434;59.896;30.474;2023-06-01T13:06:55;100814.22;;;14.15;39.92
79037;BME280;68434;59.896;30.474;2023-06-01T13:09:22;100820.19;;;14.10;41.73
79037;BME280;68434;59.896;30.474;2023-06-01T13:11:50;100821.22;;;14.09;41.63